sensor_id;sensor_type;location;lat;lon;timestamp;temperature;humidity
66928;DHT22;59882;45.624;11.698;2022-09-30T00:01:00;15.10;81.20
66928;DHT22;59882;45.624;11.698;2022-09-30T00:03:25;15.00;81.30
66928;DHT22;59882;45.624;11.698;2022-09-30T00:06:00;15.10;81.30
66928;DHT22;59882;45.624;11.698;2022-09-30T00:08:26;15.10;81.30
66928;DHT22;59882;45.624;11.698;2022-09-30T00:11:11;15.10;81.30
66928;DHT22;59882;45.624;11.698;2022-09-30T00:13:45;15.10;81.30
66928;DHT22;59882;45.624;11.698;2022-09-30T00:16:13;15.10;81.30
66928;DHT22;59882;45.624;11.698;2022-09-30T00:18:40;15.10;81.30
66928;DHT22;59882;45.624;11.698;2022-09-30T00:21:07;15.10;81.40
66928;DHT22;59882;45.624;11.698;2022-09-30T00:23:34;15.10;81.40
66928;DHT22;59882;45.624;11.698;2022-09-30T00:26:03;15.10;81.10
66928;DHT22;59882;45.624;11.698;2022-09-30T00:28:29;15.10;81.20
66928;DHT22;59882;45.624;11.698;2022-09-30T00:31:00;15.10;81.10
66928;DHT22;59882;45.624;11.698;2022-09-30T00:33:26;15.10;81.00
66928;DHT22;59882;45.624;11.698;2022-09-30T00:35:52;15.10;81.00
66928;DHT22;59882;45.624;11.698;2022-09-30T00:38:17;15.10;80.90
66928;DHT22;59882;45.624;11.698;2022-09-30T00:40:43;15.00;80.80
66928;DHT22;59882;45.624;11.698;2022-09-30T00:43:39;15.00;80.80
66928;DHT22;59882;45.624;11.698;2022-09-30T00:48:53;15.00;80.90
66928;DHT22;59882;45.624;11.698;2022-09-30T00:51:33;14.90;81.20
66928;DHT22;59882;45.624;11.698;2022-09-30T00:54:03;14.90;81.10
66928;DHT22;59882;45.624;11.698;2022-09-30T00:56:33;14.90;81.40
66928;DHT22;59882;45.624;11.698;2022-09-30T00:59:13;14.90;81.40
66928;DHT22;59882;45.624;11.698;2022-09-30T01:01:40;14.80;81.20
66928;DHT22;59882;45.624;11.698;2022-09-30T01:06:36;14.80;81.40
66928;DHT22;59882;45.624;11.698;2022-09-30T01:09:03;14.80;81.40
66928;DHT22;59882;45.624;11.698;2022-09-30T01:11:29;14.80;81.50
66928;DHT22;59882;45.624;11.698;2022-09-30T01:13:58;14.80;81.60
66928;DHT22;59882;45.624;11.698;2022-09-30T01:16:52;14.80;81.70
66928;DHT22;59882;45.624;11.698;2022-09-30T01:19:31;14.80;81.70
66928;DHT22;59882;45.624;11.698;2022-09-30T01:25:24;14.80;81.70
66928;DHT22;59882;45.624;11.698;2022-09-30T01:31:13;14.80;81.70
66928;DHT22;59882;45.624;11.698;2022-09-30T01:34:02;14.80;81.70
66928;DHT22;59882;45.624;11.698;2022-09-30T01:36:43;14.80;81.70
66928;DHT22;59882;45.624;11.698;2022-09-30T01:42:24;14.90;81.60
66928;DHT22;59882;45.624;11.698;2022-09-30T01:45:09;14.80;81.60
66928;DHT22;59882;45.624;11.698;2022-09-30T01:50:47;14.80;81.40
66928;DHT22;59882;45.624;11.698;2022-09-30T01:53:26;14.70;81.50
66928;DHT22;59882;45.624;11.698;2022-09-30T01:56:18;14.70;81.40
66928;DHT22;59882;45.624;11.698;2022-09-30T01:58:53;14.70;81.50
66928;DHT22;59882;45.624;11.698;2022-09-30T02:02:27;14.70;81.50
66928;DHT22;59882;45.624;11.698;2022-09-30T02:04:37;14.60;81.80
66928;DHT22;59882;45.624;11.698;2022-09-30T02:07:08;14.50;81.90
66928;DHT22;59882;45.624;11.698;2022-09-30T02:09:48;14.50;81.70
66928;DHT22;59882;45.624;11.698;2022-09-30T02:12:19;14.50;81.90
66928;DHT22;59882;45.624;11.698;2022-09-30T02:15:14;14.50;82.10
66928;DHT22;59882;45.624;11.698;2022-09-30T02:17:49;14.50;81.90
66928;DHT22;59882;45.624;11.698;2022-09-30T02:20:38;14.50;82.30
66928;DHT22;59882;45.624;11.698;2022-09-30T02:23:26;14.50;82.60
66928;DHT22;59882;45.624;11.698;2022-09-30T02:26:02;14.50;82.70
66928;DHT22;59882;45.624;11.698;2022-09-30T02:28:37;14.50;82.90
66928;DHT22;59882;45.624;11.698;2022-09-30T02:31:05;14.50;83.00
66928;DHT22;59882;45.624;11.698;2022-09-30T02:33:41;14.60;83.00
66928;DHT22;59882;45.624;11.698;2022-09-30T02:36:18;14.50;82.80
66928;DHT22;59882;45.624;11.698;2022-09-30T02:38:50;14.60;82.60
66928;DHT22;59882;45.624;11.698;2022-09-30T02:41:23;14.60;82.70
66928;DHT22;59882;45.624;11.698;2022-09-30T02:43:51;14.60;82.80
66928;DHT22;59882;45.624;11.698;2022-09-30T02:46:44;14.60;83.00
66928;DHT22;59882;45.624;11.698;2022-09-30T02:55:18;14.60;82.90
66928;DHT22;59882;45.624;11.698;2022-09-30T02:57:46;14.60;82.90
66928;DHT22;59882;45.624;11.698;2022-09-30T03:00:13;14.60;82.90
66928;DHT22;59882;45.624;11.698;2022-09-30T03:02:39;14.60;82.90
66928;DHT22;59882;45.624;11.698;2022-09-30T03:05:06;14.60;83.00
66928;DHT22;59882;45.624;11.698;2022-09-30T03:07:33;14.70;82.80
66928;DHT22;59882;45.624;11.698;2022-09-30T03:09:59;14.70;82.70
66928;DHT22;59882;45.624;11.698;2022-09-30T03:12:37;14.80;82.50
66928;DHT22;59882;45.624;11.698;2022-09-30T03:21:23;14.80;82.60
66928;DHT22;59882;45.624;11.698;2022-09-30T03:37:55;14.80;82.80
66928;DHT22;59882;45.624;11.698;2022-09-30T03:40:27;14.80;83.10
66928;DHT22;59882;45.624;11.698;2022-09-30T03:43:02;14.80;83.20
66928;DHT22;59882;45.624;11.698;2022-09-30T03:45:38;14.80;83.20
66928;DHT22;59882;45.624;11.698;2022-09-30T03:48:07;14.70;83.20
66928;DHT22;59882;45.624;11.698;2022-09-30T03:50:36;14.70;83.20
66928;DHT22;59882;45.624;11.698;2022-09-30T03:53:03;14.70;83.20
66928;DHT22;59882;45.624;11.698;2022-09-30T03:55:33;14.70;83.10
66928;DHT22;59882;45.624;11.698;2022-09-30T03:57:59;14.70;83.10
66928;DHT22;59882;45.624;11.698;2022-09-30T04:00:24;14.70;83.10
66928;DHT22;59882;45.624;11.698;2022-09-30T04:02:50;14.70;83.00
66928;DHT22;59882;45.624;11.698;2022-09-30T04:05:16;14.70;82.90
66928;DHT22;59882;45.624;11.698;2022-09-30T04:07:41;14.70;82.70
66928;DHT22;59882;45.624;11.698;2022-09-30T04:10:07;14.80;82.60
66928;DHT22;59882;45.624;11.698;2022-09-30T04:12:33;14.80;82.50
66928;DHT22;59882;45.624;11.698;2022-09-30T04:14:59;14.80;82.50
66928;DHT22;59882;45.624;11.698;2022-09-30T04:17:24;14.80;82.60
66928;DHT22;59882;45.624;11.698;2022-09-30T04:19:50;14.80;82.80
66928;DHT22;59882;45.624;11.698;2022-09-30T04:22:15;14.80;82.80
66928;DHT22;59882;45.624;11.698;2022-09-30T04:24:41;14.80;82.60
66928;DHT22;59882;45.624;11.698;2022-09-30T04:27:08;14.80;82.60
66928;DHT22;59882;45.624;11.698;2022-09-30T04:29:33;14.80;82.70
66928;DHT22;59882;45.624;11.698;2022-09-30T04:31:59;14.70;82.80
66928;DHT22;59882;45.624;11.698;2022-09-30T04:34:25;14.70;82.70
66928;DHT22;59882;45.624;11.698;2022-09-30T04:36:51;14.70;82.60
66928;DHT22;59882;45.624;11.698;2022-09-30T04:39:16;14.70;82.60
66928;DHT22;59882;45.624;11.698;2022-09-30T04:41:42;14.60;82.60
66928;DHT22;59882;45.624;11.698;2022-09-30T04:44:08;14.60;82.50
66928;DHT22;59882;45.624;11.698;2022-09-30T04:46:34;14.60;82.60
66928;DHT22;59882;45.624;11.698;2022-09-30T04:49:02;14.50;82.70
66928;DHT22;59882;45.624;11.698;2022-09-30T04:51:28;14.50;82.80
66928;DHT22;59882;45.624;11.698;2022-09-30T04:53:54;14.40;83.00
66928;DHT22;59882;45.624;11.698;2022-09-30T04:56:20;14.40;82.90
66928;DHT22;59882;45.624;11.698;2022-09-30T04:58:48;14.40;83.00
66928;DHT22;59882;45.624;11.698;2022-09-30T05:01:16;14.40;83.00
66928;DHT22;59882;45.624;11.698;2022-09-30T05:03:42;14.40;82.90
66928;DHT22;59882;45.624;11.698;2022-09-30T05:06:09;14.40;82.90
66928;DHT22;59882;45.624;11.698;2022-09-30T05:08:35;14.40;82.90
66928;DHT22;59882;45.624;11.698;2022-09-30T05:11:06;14.40;82.90
66928;DHT22;59882;45.624;11.698;2022-09-30T05:13:39;14.40;82.90
66928;DHT22;59882;45.624;11.698;2022-09-30T05:16:06;14.30;82.80
66928;DHT22;59882;45.624;11.698;2022-09-30T05:18:33;14.40;83.20
66928;DHT22;59882;45.624;11.698;2022-09-30T05:20:59;14.30;82.90
66928;DHT22;59882;45.624;11.698;2022-09-30T05:23:27;14.30;83.00
66928;DHT22;59882;45.624;11.698;2022-09-30T05:25:53;14.30;83.00
66928;DHT22;59882;45.624;11.698;2022-09-30T05:28:18;14.30;83.00
66928;DHT22;59882;45.624;11.698;2022-09-30T05:30:45;14.20;83.00
66928;DHT22;59882;45.624;11.698;2022-09-30T05:33:12;14.30;83.00
66928;DHT22;59882;45.624;11.698;2022-09-30T05:35:39;14.30;83.10
66928;DHT22;59882;45.624;11.698;2022-09-30T05:38:06;14.30;83.20
66928;DHT22;59882;45.624;11.698;2022-09-30T05:40:33;14.30;83.30
66928;DHT22;59882;45.624;11.698;2022-09-30T05:42:59;14.30;83.40
66928;DHT22;59882;45.624;11.698;2022-09-30T05:45:25;14.30;83.40
66928;DHT22;59882;45.624;11.698;2022-09-30T05:47:52;14.20;83.50
66928;DHT22;59882;45.624;11.698;2022-09-30T05:50:18;14.30;83.60
66928;DHT22;59882;45.624;11.698;2022-09-30T05:52:45;14.30;83.70
66928;DHT22;59882;45.624;11.698;2022-09-30T05:55:10;14.30;83.80
66928;DHT22;59882;45.624;11.698;2022-09-30T05:57:36;14.40;83.80
66928;DHT22;59882;45.624;11.698;2022-09-30T06:00:03;14.40;83.80
66928;DHT22;59882;45.624;11.698;2022-09-30T06:02:29;14.40;84.10
66928;DHT22;59882;45.624;11.698;2022-09-30T06:04:54;14.40;84.00
66928;DHT22;59882;45.624;11.698;2022-09-30T06:07:20;14.40;84.00
66928;DHT22;59882;45.624;11.698;2022-09-30T06:09:46;14.40;84.10
66928;DHT22;59882;45.624;11.698;2022-09-30T06:12:11;14.40;84.10
66928;DHT22;59882;45.624;11.698;2022-09-30T06:14:37;14.50;84.00
66928;DHT22;59882;45.624;11.698;2022-09-30T06:17:03;14.50;84.10
66928;DHT22;59882;45.624;11.698;2022-09-30T06:19:29;14.50;84.10
66928;DHT22;59882;45.624;11.698;2022-09-30T06:21:56;14.60;84.30
66928;DHT22;59882;45.624;11.698;2022-09-30T06:24:24;14.60;84.00
66928;DHT22;59882;45.624;11.698;2022-09-30T06:26:50;14.60;84.10
66928;DHT22;59882;45.624;11.698;2022-09-30T06:29:16;14.60;84.00
66928;DHT22;59882;45.624;11.698;2022-09-30T06:31:41;14.70;84.00
66928;DHT22;59882;45.624;11.698;2022-09-30T06:34:07;14.70;84.10
66928;DHT22;59882;45.624;11.698;2022-09-30T06:36:34;14.80;84.10
66928;DHT22;59882;45.624;11.698;2022-09-30T06:39:00;14.80;84.20
66928;DHT22;59882;45.624;11.698;2022-09-30T06:41:26;14.90;84.20
66928;DHT22;59882;45.624;11.698;2022-09-30T06:43:53;14.90;84.10
66928;DHT22;59882;45.624;11.698;2022-09-30T06:46:19;14.90;84.30
66928;DHT22;59882;45.624;11.698;2022-09-30T06:48:54;15.10;84.10
66928;DHT22;59882;45.624;11.698;2022-09-30T06:51:20;15.10;84.00
66928;DHT22;59882;45.624;11.698;2022-09-30T06:53:50;15.10;83.80
66928;DHT22;59882;45.624;11.698;2022-09-30T06:56:16;15.20;83.80
66928;DHT22;59882;45.624;11.698;2022-09-30T06:58:42;15.30;83.90
66928;DHT22;59882;45.624;11.698;2022-09-30T07:01:10;15.30;84.00
66928;DHT22;59882;45.624;11.698;2022-09-30T07:03:42;15.30;84.10
66928;DHT22;59882;45.624;11.698;2022-09-30T07:06:09;15.40;84.00
66928;DHT22;59882;45.624;11.698;2022-09-30T07:08:36;15.50;84.00
66928;DHT22;59882;45.624;11.698;2022-09-30T07:11:08;15.50;83.80
66928;DHT22;59882;45.624;11.698;2022-09-30T07:13:45;15.60;83.90
66928;DHT22;59882;45.624;11.698;2022-09-30T07:16:16;15.60;83.90
66928;DHT22;59882;45.624;11.698;2022-09-30T07:18:43;15.70;83.70
66928;DHT22;59882;45.624;11.698;2022-09-30T07:21:11;15.70;83.50
66928;DHT22;59882;45.624;11.698;2022-09-30T07:23:38;15.70;83.30
66928;DHT22;59882;45.624;11.698;2022-09-30T07:26:10;15.80;83.20
66928;DHT22;59882;45.624;11.698;2022-09-30T07:28:36;15.80;83.20
66928;DHT22;59882;45.624;11.698;2022-09-30T07:31:13;15.90;83.20
66928;DHT22;59882;45.624;11.698;2022-09-30T07:33:42;15.90;83.00
66928;DHT22;59882;45.624;11.698;2022-09-30T07:36:08;16.00;83.10
66928;DHT22;59882;45.624;11.698;2022-09-30T07:38:36;16.00;82.90
66928;DHT22;59882;45.624;11.698;2022-09-30T07:41:06;16.10;82.90
66928;DHT22;59882;45.624;11.698;2022-09-30T07:43:33;16.20;82.90
66928;DHT22;59882;45.624;11.698;2022-09-30T07:46:07;16.20;82.80
66928;DHT22;59882;45.624;11.698;2022-09-30T07:48:34;16.30;83.00
66928;DHT22;59882;45.624;11.698;2022-09-30T07:51:12;16.30;82.90
66928;DHT22;59882;45.624;11.698;2022-09-30T07:53:40;16.40;82.80
66928;DHT22;59882;45.624;11.698;2022-09-30T07:56:06;16.40;82.50
66928;DHT22;59882;45.624;11.698;2022-09-30T07:58:32;16.40;82.50
66928;DHT22;59882;45.624;11.698;2022-09-30T08:00:58;16.50;82.40
66928;DHT22;59882;45.624;11.698;2022-09-30T08:03:23;16.60;82.40
66928;DHT22;59882;45.624;11.698;2022-09-30T08:05:49;16.60;82.40
66928;DHT22;59882;45.624;11.698;2022-09-30T08:08:16;16.70;82.00
66928;DHT22;59882;45.624;11.698;2022-09-30T08:10:41;16.80;81.30
66928;DHT22;59882;45.624;11.698;2022-09-30T08:13:08;16.80;81.20
66928;DHT22;59882;45.624;11.698;2022-09-30T08:15:34;16.80;81.10
66928;DHT22;59882;45.624;11.698;2022-09-30T08:17:59;16.80;81.30
66928;DHT22;59882;45.624;11.698;2022-09-30T08:20:25;16.80;81.30
66928;DHT22;59882;45.624;11.698;2022-09-30T08:22:54;16.90;81.30
66928;DHT22;59882;45.624;11.698;2022-09-30T08:25:24;16.90;81.60
66928;DHT22;59882;45.624;11.698;2022-09-30T08:27:51;16.90;81.60
66928;DHT22;59882;45.624;11.698;2022-09-30T08:30:16;17.00;81.20
66928;DHT22;59882;45.624;11.698;2022-09-30T08:32:42;17.00;81.10
66928;DHT22;59882;45.624;11.698;2022-09-30T08:35:08;17.10;81.30
66928;DHT22;59882;45.624;11.698;2022-09-30T08:37:33;17.10;81.30
66928;DHT22;59882;45.624;11.698;2022-09-30T08:39:59;17.20;80.90
66928;DHT22;59882;45.624;11.698;2022-09-30T08:42:40;17.20;81.10
66928;DHT22;59882;45.624;11.698;2022-09-30T08:53:42;17.50;81.10
66928;DHT22;59882;45.624;11.698;2022-09-30T08:56:21;17.60;80.90
66928;DHT22;59882;45.624;11.698;2022-09-30T08:58:50;17.70;80.90
66928;DHT22;59882;45.624;11.698;2022-09-30T09:01:35;17.90;80.50
66928;DHT22;59882;45.624;11.698;2022-09-30T09:04:04;17.90;79.50
66928;DHT22;59882;45.624;11.698;2022-09-30T09:06:52;17.90;79.20
66928;DHT22;59882;45.624;11.698;2022-09-30T09:12:50;18.10;79.10
66928;DHT22;59882;45.624;11.698;2022-09-30T09:20:58;18.30;78.40
66928;DHT22;59882;45.624;11.698;2022-09-30T09:23:25;18.40;78.40
66928;DHT22;59882;45.624;11.698;2022-09-30T09:25:52;18.40;77.80
66928;DHT22;59882;45.624;11.698;2022-09-30T09:28:33;18.40;77.80
66928;DHT22;59882;45.624;11.698;2022-09-30T09:31:02;18.50;77.70
66928;DHT22;59882;45.624;11.698;2022-09-30T09:33:46;18.60;77.70
66928;DHT22;59882;45.624;11.698;2022-09-30T09:47:10;18.90;76.70
66928;DHT22;59882;45.624;11.698;2022-09-30T09:49:56;18.90;76.80
66928;DHT22;59882;45.624;11.698;2022-09-30T09:55:00;19.00;76.30
66928;DHT22;59882;45.624;11.698;2022-09-30T09:57:26;19.00;76.40
66928;DHT22;59882;45.624;11.698;2022-09-30T10:00:21;19.10;76.30
66928;DHT22;59882;45.624;11.698;2022-09-30T10:05:42;19.10;75.40
66928;DHT22;59882;45.624;11.698;2022-09-30T10:08:16;19.10;75.40
66928;DHT22;59882;45.624;11.698;2022-09-30T10:10:54;19.20;75.80
66928;DHT22;59882;45.624;11.698;2022-09-30T10:16:03;19.20;75.60
66928;DHT22;59882;45.624;11.698;2022-09-30T10:18:33;19.30;75.10
66928;DHT22;59882;45.624;11.698;2022-09-30T10:21:06;19.30;75.10
66928;DHT22;59882;45.624;11.698;2022-09-30T10:23:39;19.30;74.60
66928;DHT22;59882;45.624;11.698;2022-09-30T10:28:57;19.30;74.40
66928;DHT22;59882;45.624;11.698;2022-09-30T10:31:36;19.40;74.70
66928;DHT22;59882;45.624;11.698;2022-09-30T10:34:29;19.40;75.00
66928;DHT22;59882;45.624;11.698;2022-09-30T10:36:58;19.40;74.90
66928;DHT22;59882;45.624;11.698;2022-09-30T10:39:34;19.40;75.00
66928;DHT22;59882;45.624;11.698;2022-09-30T10:42:06;19.40;75.20
66928;DHT22;59882;45.624;11.698;2022-09-30T10:44:43;19.50;75.10
66928;DHT22;59882;45.624;11.698;2022-09-30T10:47:17;19.50;74.90
66928;DHT22;59882;45.624;11.698;2022-09-30T10:52:28;19.40;74.80
66928;DHT22;59882;45.624;11.698;2022-09-30T10:55:04;19.30;75.40
66928;DHT22;59882;45.624;11.698;2022-09-30T10:57:36;19.30;75.60
66928;DHT22;59882;45.624;11.698;2022-09-30T11:02:40;19.20;75.80
66928;DHT22;59882;45.624;11.698;2022-09-30T11:05:18;19.20;75.90
66928;DHT22;59882;45.624;11.698;2022-09-30T11:10:41;19.10;75.80
66928;DHT22;59882;45.624;11.698;2022-09-30T11:13:21;19.10;75.90
66928;DHT22;59882;45.624;11.698;2022-09-30T11:16:24;19.20;75.90
66928;DHT22;59882;45.624;11.698;2022-09-30T11:21:48;19.20;76.00
66928;DHT22;59882;45.624;11.698;2022-09-30T11:24:33;19.10;76.10
66928;DHT22;59882;45.624;11.698;2022-09-30T11:27:14;19.10;76.30
66928;DHT22;59882;45.624;11.698;2022-09-30T11:30:12;19.10;76.20
66928;DHT22;59882;45.624;11.698;2022-09-30T11:47:04;19.20;77.00
66928;DHT22;59882;45.624;11.698;2022-09-30T11:58:10;19.30;77.00
66928;DHT22;59882;45.624;11.698;2022-09-30T12:00:41;19.20;76.90
66928;DHT22;59882;45.624;11.698;2022-09-30T12:03:10;19.20;77.10
66928;DHT22;59882;45.624;11.698;2022-09-30T12:05:42;19.20;77.30
66928;DHT22;59882;45.624;11.698;2022-09-30T12:08:19;19.20;77.20
66928;DHT22;59882;45.624;11.698;2022-09-30T12:10:50;19.20;77.60
66928;DHT22;59882;45.624;11.698;2022-09-30T12:13:30;19.20;78.10
66928;DHT22;59882;45.624;11.698;2022-09-30T12:16:00;19.10;77.70
66928;DHT22;59882;45.624;11.698;2022-09-30T12:18:39;19.10;77.50
66928;DHT22;59882;45.624;11.698;2022-09-30T12:21:22;19.10;77.90
66928;DHT22;59882;45.624;11.698;2022-09-30T12:23:55;19.00;77.80
66928;DHT22;59882;45.624;11.698;2022-09-30T12:26:23;18.90;77.90
66928;DHT22;59882;45.624;11.698;2022-09-30T12:37:47;18.80;79.30
66928;DHT22;59882;45.624;11.698;2022-09-30T12:48:40;18.70;79.80
66928;DHT22;59882;45.624;11.698;2022-09-30T12:51:07;18.70;79.90
66928;DHT22;59882;45.624;11.698;2022-09-30T12:53:38;18.60;80.00
66928;DHT22;59882;45.624;11.698;2022-09-30T12:56:11;18.60;80.40
66928;DHT22;59882;45.624;11.698;2022-09-30T12:58:47;18.60;80.80
66928;DHT22;59882;45.624;11.698;2022-09-30T13:01:17;18.60;81.00
66928;DHT22;59882;45.624;11.698;2022-09-30T13:03:47;18.50;81.10
66928;DHT22;59882;45.624;11.698;2022-09-30T13:06:14;18.50;80.80
66928;DHT22;59882;45.624;11.698;2022-09-30T13:08:48;18.50;81.10
66928;DHT22;59882;45.624;11.698;2022-09-30T13:11:34;18.40;81.20
66928;DHT22;59882;45.624;11.698;2022-09-30T13:32:48;18.30;82.30
66928;DHT22;59882;45.624;11.698;2022-09-30T13:35:47;18.30;82.30
66928;DHT22;59882;45.624;11.698;2022-09-30T13:40:56;18.30;82.40
66928;DHT22;59882;45.624;11.698;2022-09-30T13:46:26;18.20;82.50
66928;DHT22;59882;45.624;11.698;2022-09-30T13:48:57;18.20;82.80
66928;DHT22;59882;45.624;11.698;2022-09-30T13:51:27;18.20;82.80
66928;DHT22;59882;45.624;11.698;2022-09-30T13:53:57;18.20;82.70
66928;DHT22;59882;45.624;11.698;2022-09-30T13:56:35;18.10;82.80
66928;DHT22;59882;45.624;11.698;2022-09-30T13:59:22;18.10;82.80
66928;DHT22;59882;45.624;11.698;2022-09-30T14:02:28;18.10;83.00
66928;DHT22;59882;45.624;11.698;2022-09-30T14:08:18;18.10;83.20
66928;DHT22;59882;45.624;11.698;2022-09-30T14:11:04;18.00;83.50
66928;DHT22;59882;45.624;11.698;2022-09-30T14:14:31;18.00;83.30
66928;DHT22;59882;45.624;11.698;2022-09-30T14:22:57;17.90;83.90
66928;DHT22;59882;45.624;11.698;2022-09-30T14:25:23;17.90;83.80
66928;DHT22;59882;45.624;11.698;2022-09-30T14:28:05;17.90;83.90
66928;DHT22;59882;45.624;11.698;2022-09-30T14:30:39;17.90;84.10
66928;DHT22;59882;45.624;11.698;2022-09-30T14:33:11;17.90;84.10
66928;DHT22;59882;45.624;11.698;2022-09-30T14:35:41;17.90;84.30
66928;DHT22;59882;45.624;11.698;2022-09-30T14:38:29;17.90;84.40
66928;DHT22;59882;45.624;11.698;2022-09-30T14:40:59;17.90;84.40
66928;DHT22;59882;45.624;11.698;2022-09-30T14:43:28;17.90;84.50
66928;DHT22;59882;45.624;11.698;2022-09-30T14:46:04;17.80;84.20
66928;DHT22;59882;45.624;11.698;2022-09-30T14:48:33;17.80;84.40
66928;DHT22;59882;45.624;11.698;2022-09-30T14:53:34;17.80;84.20
66928;DHT22;59882;45.624;11.698;2022-09-30T14:56:01;17.70;84.50
66928;DHT22;59882;45.624;11.698;2022-09-30T14:58:30;17.70;84.80
66928;DHT22;59882;45.624;11.698;2022-09-30T15:03:28;17.70;84.50
66928;DHT22;59882;45.624;11.698;2022-09-30T15:05:55;17.70;84.70
66928;DHT22;59882;45.624;11.698;2022-09-30T15:08:22;17.70;84.70
66928;DHT22;59882;45.624;11.698;2022-09-30T15:10:53;17.60;85.00
66928;DHT22;59882;45.624;11.698;2022-09-30T15:13:30;17.70;84.70
66928;DHT22;59882;45.624;11.698;2022-09-30T15:15:56;17.60;85.00
66928;DHT22;59882;45.624;11.698;2022-09-30T15:18:33;17.60;84.80
66928;DHT22;59882;45.624;11.698;2022-09-30T15:21:12;17.60;84.90
66928;DHT22;59882;45.624;11.698;2022-09-30T15:23:41;17.60;85.10
66928;DHT22;59882;45.624;11.698;2022-09-30T15:26:10;17.60;85.60
66928;DHT22;59882;45.624;11.698;2022-09-30T15:28:36;17.60;85.50
66928;DHT22;59882;45.624;11.698;2022-09-30T15:31:03;17.60;85.50
66928;DHT22;59882;45.624;11.698;2022-09-30T15:33:29;17.60;85.90
66928;DHT22;59882;45.624;11.698;2022-09-30T15:36:16;17.60;86.10
66928;DHT22;59882;45.624;11.698;2022-09-30T15:38:49;17.60;86.10
66928;DHT22;59882;45.624;11.698;2022-09-30T15:41:16;17.50;86.10
66928;DHT22;59882;45.624;11.698;2022-09-30T15:43:48;17.60;86.00
66928;DHT22;59882;45.624;11.698;2022-09-30T15:46:29;17.50;85.60
66928;DHT22;59882;45.624;11.698;2022-09-30T15:51:53;17.60;86.10
66928;DHT22;59882;45.624;11.698;2022-09-30T15:56:57;17.50;86.20
66928;DHT22;59882;45.624;11.698;2022-09-30T15:59:57;17.50;86.20
66928;DHT22;59882;45.624;11.698;2022-09-30T16:02:24;17.50;86.20
66928;DHT22;59882;45.624;11.698;2022-09-30T16:04:51;17.40;86.30
66928;DHT22;59882;45.624;11.698;2022-09-30T16:07:18;17.40;86.10
66928;DHT22;59882;45.624;11.698;2022-09-30T16:09:46;17.40;85.90
66928;DHT22;59882;45.624;11.698;2022-09-30T16:12:14;17.40;86.00
66928;DHT22;59882;45.624;11.698;2022-09-30T16:14:52;17.40;85.80
66928;DHT22;59882;45.624;11.698;2022-09-30T16:17:25;17.40;85.70
66928;DHT22;59882;45.624;11.698;2022-09-30T16:19:56;17.40;85.80
66928;DHT22;59882;45.624;11.698;2022-09-30T16:25:25;17.40;85.70
66928;DHT22;59882;45.624;11.698;2022-09-30T16:27:59;17.40;85.60
66928;DHT22;59882;45.624;11.698;2022-09-30T16:30:26;17.40;85.60
66928;DHT22;59882;45.624;11.698;2022-09-30T16:32:57;17.30;85.60
66928;DHT22;59882;45.624;11.698;2022-09-30T16:35:26;17.30;85.60
66928;DHT22;59882;45.624;11.698;2022-09-30T16:38:04;17.30;85.60
66928;DHT22;59882;45.624;11.698;2022-09-30T16:40:32;17.20;85.60
66928;DHT22;59882;45.624;11.698;2022-09-30T16:42:58;17.20;85.70
66928;DHT22;59882;45.624;11.698;2022-09-30T16:45:26;17.20;85.90
66928;DHT22;59882;45.624;11.698;2022-09-30T16:47:52;17.10;85.80
66928;DHT22;59882;45.624;11.698;2022-09-30T16:52:56;17.10;85.80
66928;DHT22;59882;45.624;11.698;2022-09-30T16:55:25;17.10;85.80
66928;DHT22;59882;45.624;11.698;2022-09-30T16:57:51;17.10;85.70
66928;DHT22;59882;45.624;11.698;2022-09-30T17:00:17;17.10;85.70
66928;DHT22;59882;45.624;11.698;2022-09-30T17:02:47;17.10;85.90
66928;DHT22;59882;45.624;11.698;2022-09-30T17:05:18;17.10;85.80
66928;DHT22;59882;45.624;11.698;2022-09-30T17:07:46;17.10;86.00
66928;DHT22;59882;45.624;11.698;2022-09-30T17:10:31;17.00;85.90
66928;DHT22;59882;45.624;11.698;2022-09-30T17:12:58;17.00;85.80
66928;DHT22;59882;45.624;11.698;2022-09-30T17:15:26;17.00;86.10
66928;DHT22;59882;45.624;11.698;2022-09-30T17:17:52;17.00;86.00
66928;DHT22;59882;45.624;11.698;2022-09-30T17:20:19;16.90;86.10
66928;DHT22;59882;45.624;11.698;2022-09-30T17:22:44;16.90;86.00
66928;DHT22;59882;45.624;11.698;2022-09-30T17:25:10;16.90;86.00
66928;DHT22;59882;45.624;11.698;2022-09-30T17:27:36;16.90;86.10
66928;DHT22;59882;45.624;11.698;2022-09-30T17:30:03;16.90;86.10
66928;DHT22;59882;45.624;11.698;2022-09-30T17:32:29;16.90;86.10
66928;DHT22;59882;45.624;11.698;2022-09-30T17:34:55;16.90;86.20
66928;DHT22;59882;45.624;11.698;2022-09-30T17:37:21;16.90;86.10
66928;DHT22;59882;45.624;11.698;2022-09-30T17:39:47;16.90;86.10
66928;DHT22;59882;45.624;11.698;2022-09-30T17:42:13;16.90;86.10
66928;DHT22;59882;45.624;11.698;2022-09-30T17:44:59;16.90;86.10
66928;DHT22;59882;45.624;11.698;2022-09-30T17:47:24;16.90;86.20
66928;DHT22;59882;45.624;11.698;2022-09-30T17:49:51;16.90;86.20
66928;DHT22;59882;45.624;11.698;2022-09-30T17:52:16;16.90;86.20
66928;DHT22;59882;45.624;11.698;2022-09-30T17:54:42;16.90;86.30
66928;DHT22;59882;45.624;11.698;2022-09-30T17:57:08;16.90;86.20
66928;DHT22;59882;45.624;11.698;2022-09-30T17:59:33;16.90;86.20
66928;DHT22;59882;45.624;11.698;2022-09-30T18:01:59;16.90;86.30
66928;DHT22;59882;45.624;11.698;2022-09-30T18:04:25;16.90;86.30
66928;DHT22;59882;45.624;11.698;2022-09-30T18:06:52;16.90;86.30
66928;DHT22;59882;45.624;11.698;2022-09-30T18:09:18;16.90;86.20
66928;DHT22;59882;45.624;11.698;2022-09-30T18:11:44;16.90;86.30
66928;DHT22;59882;45.624;11.698;2022-09-30T18:14:10;16.90;86.30
66928;DHT22;59882;45.624;11.698;2022-09-30T18:16:36;16.90;86.40
66928;DHT22;59882;45.624;11.698;2022-09-30T18:19:04;16.90;86.40
66928;DHT22;59882;45.624;11.698;2022-09-30T18:21:31;16.90;86.40
66928;DHT22;59882;45.624;11.698;2022-09-30T18:23:57;16.80;86.50
66928;DHT22;59882;45.624;11.698;2022-09-30T18:26:24;16.80;86.40
66928;DHT22;59882;45.624;11.698;2022-09-30T18:28:50;16.80;86.30
66928;DHT22;59882;45.624;11.698;2022-09-30T18:31:18;16.80;86.30
66928;DHT22;59882;45.624;11.698;2022-09-30T18:33:56;16.80;86.20
66928;DHT22;59882;45.624;11.698;2022-09-30T18:36:26;16.80;86.20
66928;DHT22;59882;45.624;11.698;2022-09-30T18:38:54;16.80;86.30
66928;DHT22;59882;45.624;11.698;2022-09-30T18:41:26;16.80;86.10
66928;DHT22;59882;45.624;11.698;2022-09-30T18:43:52;16.80;86.20